Time;durP1;ratioP1;P1;durP2;ratioP2;P2;SDS_P1;SDS_P2;PMS_P1;PMS_P2;Temp;Humidity;BMP_temperature;BMP_pressure;BME280_temperature;BME280_humidity;BME280_pressure;Samples;Min_cycle;Max_cycle;Signal;HPM_P1;HPM_P2
2020/12/28 00:02:24;;;;;;;26.23;11.55;;;;;;;0.75;75.74;98660.22;1694640;83;21613;-76
2020/12/28 00:04:50;;;;;;;24.00;12.00;;;;;;;0.75;75.74;98649.20;1697295;84;21542;-76
2020/12/28 00:07:17;;;;;;;24.50;12.63;;;;;;;0.74;75.74;98650.90;1697155;84;21231;-76
2020/12/28 00:09:43;;;;;;;28.05;11.78;;;;;;;0.74;75.72;98648.78;1696602;84;21252;-76
2020/12/28 00:12:10;;;;;;;23.00;11.88;;;;;;;0.73;75.76;98648.37;1696264;84;21203;-75
2020/12/28 00:14:36;;;;;;;24.20;11.12;;;;;;;0.72;75.79;98637.78;1697044;84;22907;-75
2020/12/28 00:17:02;;;;;;;28.12;11.80;;;;;;;0.72;75.80;98629.72;1695360;84;21290;-75
2020/12/28 00:19:29;;;;;;;26.17;11.55;;;;;;;0.73;75.80;98631.84;1695735;84;21183;-76
2020/12/28 00:21:55;;;;;;;24.85;12.05;;;;;;;0.74;75.80;98632.25;1696707;84;21195;-75
2020/12/28 00:24:21;;;;;;;26.27;12.90;;;;;;;0.74;75.79;98624.19;1696699;84;21227;-75
2020/12/28 00:26:47;;;;;;;29.52;12.65;;;;;;;0.75;75.81;98623.77;1696839;84;21231;-75
2020/12/28 00:29:14;;;;;;;26.97;12.80;;;;;;;0.75;75.80;98628.84;1696589;84;21739;-76
2020/12/28 00:31:43;;;;;;;26.17;12.30;;;;;;;0.77;75.82;98624.59;1696301;84;21227;-76
2020/12/28 00:34:11;;;;;;;29.65;13.43;;;;;;;0.75;75.84;98615.70;1696057;84;21210;-76
2020/12/28 00:36:38;;;;;;;28.50;12.90;;;;;;;0.78;75.84;98617.38;1696901;84;21665;-76
2020/12/28 00:39:06;;;;;;;26.85;12.85;;;;;;;0.78;75.83;98610.59;1696606;84;21251;-76
2020/12/28 00:41:32;;;;;;;28.77;13.13;;;;;;;0.78;75.80;98598.30;1696259;84;21339;-76
2020/12/28 00:43:59;;;;;;;26.40;11.75;;;;;;;0.79;75.83;98597.44;1696673;84;21219;-75
2020/12/28 00:46:25;;;;;;;26.85;12.95;;;;;;;0.70;75.86;98568.27;1695363;84;21635;-75
2020/12/28 00:48:51;;;;;;;26.65;12.37;;;;;;;0.70;75.86;98568.27;1695693;84;22935;-75
2020/12/28 00:51:18;;;;;;;26.12;12.20;;;;;;;0.79;75.82;98591.09;1696323;84;21247;-75
2020/12/28 00:53:44;;;;;;;28.92;13.68;;;;;;;0.80;75.82;98591.50;1696803;84;21359;-75
2020/12/28 00:56:15;;;;;;;27.20;12.45;;;;;;;0.81;75.84;98594.45;1696874;84;21215;-75
2020/12/28 00:58:41;;;;;;;30.43;12.78;;;;;;;0.80;75.82;98594.04;1695934;83;21224;-75
2020/12/28 01:01:08;;;;;;;30.77;13.85;;;;;;;0.81;75.86;98597.00;1696072;84;21689;-75
2020/12/28 01:03:34;;;;;;;;;;;;;;;0.82;75.86;98585.97;1723278;83;21224;-75
2020/12/28 01:06:05;;;;;;;31.87;13.62;;;;;;;0.83;75.88;98590.20;1726129;83;21134;-75
2020/12/28 01:08:31;;;;;;;28.62;13.25;;;;;;;0.82;75.87;98584.70;1721370;83;21246;-75
2020/12/28 01:10:57;;;;;;;25.02;12.45;;;;;;;0.82;75.90;98577.91;1695960;84;21256;-75
2020/12/28 01:13:24;;;;;;;26.27;12.50;;;;;;;0.82;75.90;98566.46;1696780;84;21215;-75
2020/12/28 01:15:50;;;;;;;25.27;12.80;;;;;;;0.84;75.93;98563.90;1696692;84;21199;-75
2020/12/28 01:18:16;;;;;;;23.25;11.15;;;;;;;0.86;75.92;98555.83;1696786;84;21290;-75
2020/12/28 01:20:42;;;;;;;25.52;11.65;;;;;;;0.85;75.92;98558.80;1696831;84;21207;-75
2020/12/28 01:23:09;;;;;;;28.67;13.13;;;;;;;0.86;75.92;98555.83;1696911;84;21196;-75
2020/12/28 01:25:35;;;;;;;26.68;11.90;;;;;;;0.88;75.93;98546.48;1696470;84;22190;-75
2020/12/28 01:28:01;;;;;;;27.00;12.37;;;;;;;0.86;75.94;98556.67;1696965;84;21203;-75
2020/12/28 01:30:27;;;;;;;25.95;12.68;;;;;;;0.89;75.99;98558.34;1696619;84;21263;-75
2020/12/28 01:32:54;;;;;;;27.37;12.03;;;;;;;0.89;76.01;98547.73;1696646;84;21231;-75
2020/12/28 01:35:20;;;;;;;20.52;10.85;;;;;;;0.91;76.01;98541.36;1696419;84;21216;-75
2020/12/28 01:37:47;;;;;;;26.82;12.88;;;;;;;0.90;76.01;98527.80;1696834;84;21198;-75
2020/12/28 01:40:14;;;;;;;28.52;11.73;;;;;;;0.92;76.06;98535.41;1696703;84;21700;-75
2020/12/28 01:42:40;;;;;;;24.05;12.00;;;;;;;0.94;76.07;98534.97;1696582;83;21644;-75
2020/12/28 01:45:07;;;;;;;24.98;11.88;;;;;;;0.95;76.09;98522.23;1696982;84;21271;-75
2020/12/28 01:47:33;;;;;;;28.25;12.70;;;;;;;0.97;76.12;98523.48;1696664;84;21211;-75
2020/12/28 01:49:59;;;;;;;22.32;12.18;;;;;;;0.98;76.11;98521.34;1696894;84;21203;-75
2020/12/28 01:52:26;;;;;;;24.18;11.80;;;;;;;0.99;76.14;98514.97;1696915;84;21223;-75
2020/12/28 01:54:53;;;;;;;18.70;9.70;;;;;;;1.02;76.17;98510.70;1696941;84;21975;-75
2020/12/28 01:57:19;;;;;;;21.07;11.50;;;;;;;1.03;76.20;98501.78;1696498;84;21812;-75
2020/12/28 01:59:46;;;;;;;24.77;10.63;;;;;;;1.04;76.19;98494.53;1696485;83;21204;-75
2020/12/28 02:02:12;;;;;;;22.80;11.40;;;;;;;1.07;76.23;98494.92;1696203;83;21172;-75
2020/12/28 02:04:38;;;;;;;20.12;10.48;;;;;;;1.10;76.29;98497.43;1696157;84;21180;-75
2020/12/28 02:07:07;;;;;;;20.08;9.98;;;;;;;1.13;76.29;98489.33;1691693;83;21225;-75
2020/12/28 02:09:34;;;;;;;23.10;11.45;;;;;;;1.16;76.26;98485.47;1695244;83;21231;-75
2020/12/28 02:12:00;;;;;;;25.40;11.08;;;;;;;1.19;76.30;98484.16;1692092;83;26600;-75
2020/12/28 02:14:26;;;;;;;28.45;12.18;;;;;;;1.20;76.32;98482.46;1693607;83;21640;-75
2020/12/28 02:16:53;;;;;;;20.35;10.88;;;;;;;1.23;76.34;98478.60;1695136;83;21187;-75
2020/12/28 02:19:20;;;;;;;22.85;10.98;;;;;;;1.25;76.36;98471.36;1664768;84;21248;-75
2020/12/28 02:21:46;;;;;;;20.52;11.08;;;;;;;1.28;76.39;98466.66;1694776;83;21197;-75
2020/12/28 02:24:16;;;;;;;22.82;10.98;;;;;;;1.31;76.42;98466.62;1691749;83;21652;-75
2020/12/28 02:26:40;;;;;;;23.65;10.70;;;;;;;1.36;76.41;98460.19;1694531;83;21620;-75
2020/12/28 02:29:07;;;;;;;16.57;9.45;;;;;;;1.38;76.43;98459.73;1696458;83;21203;-75
2020/12/28 02:31:33;;;;;;;20.85;10.25;;;;;;;1.41;76.44;98454.61;1693946;84;21306;-75
2020/12/28 02:33:59;;;;;;;23.25;10.63;;;;;;;1.44;76.49;98443.95;1693471;83;21212;-74
2020/12/28 02:36:25;;;;;;;19.12;10.63;;;;;;;1.46;76.48;98453.68;1695674;83;21672;-74
2020/12/28 02:38:52;;;;;;;19.40;10.30;;;;;;;1.49;76.53;98452.80;1692197;83;21199;-75
2020/12/28 02:41:18;;;;;;;18.75;10.32;;;;;;;1.52;76.52;98451.48;1687944;83;27263;-75
2020/12/28 02:43:44;;;;;;;19.23;10.80;;;;;;;1.55;76.58;98442.09;1698848;82;21667;-76
2020/12/28 02:46:11;;;;;;;19.32;9.90;;;;;;;1.60;76.60;98434.34;1700830;82;21196;-75
2020/12/28 02:48:37;;;;;;;20.70;10.20;;;;;;;1.65;76.63;98422.39;1696691;82;21769;-75
2020/12/28 02:51:03;;;;;;;21.17;10.15;;;;;;;1.71;76.67;98415.92;1701802;82;21186;-76
2020/12/28 02:53:30;;;;;;;16.55;9.60;;;;;;;1.78;76.70;98415.39;1702014;83;21262;-76
2020/12/28 02:55:56;;;;;;;21.93;10.65;;;;;;;1.83;76.65;98410.63;1698353;82;21770;-76
2020/12/28 02:58:22;;;;;;;18.00;10.05;;;;;;;1.87;76.63;98396.14;1701159;82;21231;-76
2020/12/28 03:00:48;;;;;;;16.82;8.38;;;;;;;1.91;76.64;98395.22;1702487;82;21192;-76
2020/12/28 03:03:15;;;;;;;15.80;9.38;;;;;;;1.94;76.65;98400.27;1701544;82;21208;-76
2020/12/28 03:05:41;;;;;;;17.92;8.90;;;;;;;1.97;76.69;98397.23;1701128;82;21188;-76
2020/12/28 03:08:07;;;;;;;14.70;8.83;;;;;;;2.04;76.69;98390.75;1697538;82;21660;-76
2020/12/28 03:10:33;;;;;;;16.40;9.03;;;;;;;2.07;76.67;98386.45;1697639;82;21215;-76
2020/12/28 03:13:00;;;;;;;18.17;9.93;;;;;;;2.09;76.68;98383.84;1689540;83;21152;-76
2020/12/28 03:15:26;;;;;;;16.90;9.25;;;;;;;2.12;76.71;98380.80;1707625;82;21737;-76
2020/12/28 03:17:52;;;;;;;17.85;9.20;;;;;;;2.16;76.72;98372.23;1707503;82;21183;-76
2020/12/28 03:20:19;;;;;;;15.35;9.30;;;;;;;2.21;76.72;98368.33;1701216;82;21205;-75
2020/12/28 03:22:45;;;;;;;15.95;8.75;;;;;;;2.26;76.75;98374.17;1701213;82;22272;-75
2020/12/28 03:25:11;;;;;;;14.80;8.73;;;;;;;2.29;76.73;98367.75;1699666;82;21219;-75
2020/12/28 03:27:37;;;;;;;12.80;8.05;;;;;;;2.33;76.75;98357.46;1698288;82;21226;-75
2020/12/28 03:30:04;;;;;;;12.90;7.83;;;;;;;2.39;76.76;98348.02;1696901;82;21199;-75
2020/12/28 03:32:30;;;;;;;14.85;8.55;;;;;;;2.43;76.77;98340.70;1703653;83;21743;-75
2020/12/28 03:34:56;;;;;;;15.35;8.28;;;;;;;2.47;76.78;98344.44;1697803;82;21222;-75
2020/12/28 03:37:23;;;;;;;13.93;7.60;;;;;;;2.52;76.77;98349.45;1700487;82;21211;-76
2020/12/28 03:39:49;;;;;;;15.68;8.93;;;;;;;2.54;76.78;98354.93;1700901;83;21225;-74
2020/12/28 03:42:15;;;;;;;13.18;7.80;;;;;;;2.57;76.80;98330.63;1689357;82;21652;-76
2020/12/28 03:44:42;;;;;;;13.20;8.25;;;;;;;2.62;76.84;98324.97;1661015;84;21218;-76
2020/12/28 03:47:08;;;;;;;16.25;8.08;;;;;;;2.66;76.78;98320.64;1665804;84;21188;-76
2020/12/28 03:49:34;;;;;;;16.02;9.03;;;;;;;2.69;76.82;98319.30;1665902;84;21212;-75
2020/12/28 03:52:00;;;;;;;13.78;7.75;;;;;;;2.71;76.81;98323.09;1665809;84;21194;-76
2020/12/28 03:54:27;;;;;;;13.68;7.65;;;;;;;2.74;76.83;98308.56;1666113;85;21237;-76
2020/12/28 03:56:53;;;;;;;13.72;7.75;;;;;;;2.76;76.85;98312.36;1666083;84;21084;-76
2020/12/28 03:59:19;;;;;;;16.20;8.50;;;;;;;2.78;76.85;98305.08;1660625;84;21248;-76
2020/12/28 04:01:46;;;;;;;15.58;8.15;;;;;;;2.84;76.90;98297.72;1667692;84;21206;-76
2020/12/28 04:04:12;;;;;;;15.68;8.35;;;;;;;2.88;76.86;98301.89;1659289;85;21798;-76
2020/12/28 04:06:38;;;;;;;15.75;8.30;;;;;;;2.90;76.87;98298.42;1666732;84;21676;-76
2020/12/28 04:09:04;;;;;;;15.43;8.28;;;;;;;2.91;76.86;98296.28;1666681;84;21250;-75
2020/12/28 04:11:31;;;;;;;15.68;8.08;;;;;;;2.94;76.84;98290.27;1665811;84;21232;-75
2020/12/28 04:13:57;;;;;;;13.43;7.67;;;;;;;2.95;76.85;98277.91;1666823;84;21209;-75
2020/12/28 04:16:23;;;;;;;11.48;7.47;;;;;;;2.95;76.84;98277.91;1680133;84;21243;-75
2020/12/28 04:18:49;;;;;;;13.32;7.95;;;;;;;2.94;76.86;98273.23;1668394;84;21423;-75
2020/12/28 04:21:16;;;;;;;11.78;7.55;;;;;;;2.97;76.87;98279.98;1666587;84;22006;-75
2020/12/28 04:23:42;;;;;;;14.73;7.58;;;;;;;2.96;76.89;98272.77;1666230;84;21214;-75
2020/12/28 04:26:08;;;;;;;15.90;8.18;;;;;;;2.97;76.89;98282.09;1666587;84;21192;-75
2020/12/28 04:28:35;;;;;;;10.95;7.08;;;;;;;2.97;76.92;98279.98;1666064;84;21245;-75
2020/12/28 04:31:01;;;;;;;12.63;7.15;;;;;;;2.97;76.94;98283.81;1666397;84;21184;-75
2020/12/28 04:33:27;;;;;;;12.50;7.42;;;;;;;2.99;76.94;98283.34;1666973;85;21220;-75
2020/12/28 04:35:54;;;;;;;13.80;7.78;;;;;;;2.99;76.96;98282.06;1666609;84;21668;-75
2020/12/28 04:38:21;;;;;;;13.60;7.62;;;;;;;3.02;76.98;98287.53;1667064;84;21225;-75
2020/12/28 04:40:47;;;;;;;;;;;;;;;3.03;76.97;98285.39;1669553;85;21239;-75
2020/12/28 04:43:13;;;;;;;12.03;7.12;;;;;;;3.02;76.97;98283.27;1666770;85;20300;-76
2020/12/28 04:45:40;;;;;;;;;;;;;;;3.03;77.02;98286.66;1668640;85;21222;-76
2020/12/28 04:48:07;;;;;;;;;;;;;;;3.03;77.02;98260.70;1668680;84;20306;-76
2020/12/28 04:50:36;;;;;;;11.57;7.37;;;;;;;3.04;77.03;98263.66;1667250;84;20312;-76
2020/12/28 04:53:04;;;;;;;12.50;7.80;;;;;;;3.05;77.04;98268.33;1666170;85;21198;-76
2020/12/28 04:55:30;;;;;;;12.37;7.78;;;;;;;3.07;77.06;98272.52;1666394;84;21663;-76
2020/12/28 04:57:58;;;;;;;12.05;7.28;;;;;;;3.08;77.07;98264.42;1650525;85;21848;-76
2020/12/28 05:00:25;;;;;;;10.53;7.42;;;;;;;3.10;77.07;98267.78;1666555;84;21281;-76
2020/12/28 05:02:52;;;;;;;17.67;7.53;;;;;;;3.11;77.09;98265.19;1669279;84;21213;-76
2020/12/28 05:05:18;;;;;;;9.58;6.75;;;;;;;3.13;77.09;98255.74;1666835;84;28485;-76
2020/12/28 05:07:50;;;;;;;11.48;7.20;;;;;;;3.16;77.09;98243.34;1666882;85;21731;-76
2020/12/28 05:10:25;;;;;;;13.38;7.90;;;;;;;3.18;77.10;98232.66;1666699;84;21539;-76
2020/12/28 05:12:52;;;;;;;12.35;7.35;;;;;;;3.21;77.13;98241.52;1665995;85;21753;-76
2020/12/28 05:15:18;;;;;;;20.68;7.65;;;;;;;3.24;77.13;98247.83;1666332;84;21244;-76
2020/12/28 05:17:53;;;;;;;;;;;;;;;3.28;77.16;98236.66;1656234;85;21550;-75
2020/12/28 05:20:24;;;;;;;14.20;7.65;;;;;;;3.33;77.12;98245.05;1666042;84;20298;-75
2020/12/28 05:22:54;;;;;;;13.10;8.18;;;;;;;3.35;77.11;98238.63;1665027;84;21248;-75
2020/12/28 05:25:22;;;;;;;10.28;6.50;;;;;;;3.36;77.10;98250.52;1666273;84;21221;-75
2020/12/28 05:27:50;;;;;;;14.25;8.30;;;;;;;3.38;77.09;98256.43;1665993;84;21215;-75
2020/12/28 05:30:21;;;;;;;12.45;7.85;;;;;;;3.39;77.09;98251.72;1666057;85;21201;-75
2020/12/28 05:32:48;;;;;;;11.73;6.80;;;;;;;3.42;77.11;98245.26;1666439;85;21228;-75
2020/12/28 05:35:15;;;;;;;15.35;7.22;;;;;;;3.43;77.08;98240.55;1666582;84;21726;-75
2020/12/28 05:37:47;;;;;;;12.15;7.55;;;;;;;3.42;77.05;98241.42;1666071;85;21673;-75
2020/12/28 05:40:16;;;;;;;12.60;7.65;;;;;;;3.44;77.06;98239.67;1664173;85;21223;-76
2020/12/28 05:42:51;;;;;;;16.45;8.10;;;;;;;3.44;77.01;98248.61;1664354;84;21121;-76
2020/12/28 05:45:18;;;;;;;15.45;8.78;;;;;;;3.43;77.04;98247.77;1648886;85;21175;-76
2020/12/28 05:47:52;;;;;;;14.30;9.25;;;;;;;3.42;77.02;98252.92;1668086;84;21234;-76
2020/12/28 05:50:23;;;;;;;12.37;7.97;;;;;;;3.41;77.03;98254.64;1662201;84;21156;-76
2020/12/28 05:52:54;;;;;;;14.55;8.48;;;;;;;3.40;77.01;98249.56;1664716;84;21211;-76
2020/12/28 05:55:24;;;;;;;14.33;8.78;;;;;;;3.39;77.00;98250.01;1666414;84;21158;-76
2020/12/28 05:57:50;;;;;;;14.23;8.08;;;;;;;3.36;76.99;98252.64;1667940;85;21136;-76
2020/12/28 06:00:18;;;;;;;15.05;8.40;;;;;;;3.32;76.95;98248.04;1666762;84;21768;-76
2020/12/28 06:02:44;;;;;;;13.38;8.98;;;;;;;3.28;76.98;98266.88;1668097;84;21172;-76
2020/12/28 06:05:12;;;;;;;;;;;;;;;3.24;76.95;98261.44;1667228;85;21191;-76
2020/12/28 06:07:38;;;;;;;16.65;8.90;;;;;;;3.19;76.92;98254.32;1666730;85;20319;-76
2020/12/28 06:10:06;;;;;;;14.47;9.20;;;;;;;3.13;76.96;98250.64;1661737;84;21221;-75
2020/12/28 06:12:32;;;;;;;18.45;9.75;;;;;;;3.08;76.98;98252.50;1661233;84;22369;-75
2020/12/28 06:14:59;;;;;;;16.97;9.88;;;;;;;3.03;77.01;98251.77;1665413;84;21213;-75
2020/12/28 06:17:32;;;;;;;;;;;;;;;3.01;77.02;98251.40;1669135;84;21588;-75
2020/12/28 06:20:06;;;;;;;16.02;9.23;;;;;;;2.98;77.05;98256.98;1666596;84;20265;-75
2020/12/28 06:22:33;;;;;;;14.33;8.88;;;;;;;2.96;77.09;98246.40;1667436;84;21127;-75
2020/12/28 06:25:06;;;;;;;14.80;9.23;;;;;;;2.93;77.07;98252.41;1666761;84;21148;-75
2020/12/28 06:27:36;;;;;;;16.32;9.23;;;;;;;2.91;77.04;98257.16;1671078;83;21124;-75
2020/12/28 06:30:22;;;;;;;16.50;9.08;;;;;;;2.88;77.03;98264.88;1666080;84;21216;-75
2020/12/28 06:33:04;;;;;;;15.65;9.53;;;;;;;2.82;77.05;98263.30;1665759;85;21692;-75
2020/12/28 06:35:32;;;;;;;17.30;9.15;;;;;;;2.78;77.08;98263.41;1665530;85;21224;-76
2020/12/28 06:38:03;;;;;;;13.90;8.75;;;;;;;2.76;77.11;98262.60;1659947;85;21212;-76
2020/12/28 06:40:40;;;;;;;16.32;9.45;;;;;;;2.74;77.14;98256.69;1666465;85;21224;-76
2020/12/28 06:43:15;;;;;;;17.00;8.98;;;;;;;2.72;77.17;98240.58;1663614;84;21234;-76
2020/12/28 06:45:49;;;;;;;14.65;8.60;;;;;;;2.71;77.15;98243.56;1702435;84;21222;-76
2020/12/28 06:48:25;;;;;;;16.55;8.85;;;;;;;2.68;77.15;98242.80;1695824;82;21187;-74
2020/12/28 06:50:56;;;;;;;19.77;10.35;;;;;;;2.68;77.19;98253.00;1699224;84;21243;-76
2020/12/28 06:53:27;;;;;;;18.00;9.40;;;;;;;2.68;77.20;98247.90;1675402;82;21186;-76
2020/12/28 06:55:53;;;;;;;15.45;9.28;;;;;;;2.65;77.20;98247.09;1700977;82;21195;-76
2020/12/28 06:58:20;;;;;;;12.82;7.67;;;;;;;2.64;77.22;98247.96;1697994;84;21171;-76
2020/12/28 07:00:46;;;;;;;10.93;7.33;;;;;;;2.65;77.26;98250.92;1699692;82;21183;-76
2020/12/28 07:03:15;;;;;;;15.93;9.13;;;;;;;2.65;77.26;98250.92;1703450;82;22459;-76
2020/12/28 07:05:42;;;;;;;12.82;7.90;;;;;;;2.64;77.24;98243.30;1698536;84;21672;-76
2020/12/28 07:08:08;;;;;;;;;;;;;;;2.64;77.25;98243.30;1699970;82;21260;-76
2020/12/28 07:10:34;;;;;;;;;;;;;;;2.63;77.26;98237.80;1696725;83;20319;-76
2020/12/28 07:13:05;;;;;;;15.85;8.50;;;;;;;2.63;77.29;98236.52;1690714;84;20350;-75
2020/12/28 07:15:32;;;;;;;14.83;8.70;;;;;;;2.62;77.29;98234.41;1697610;84;22012;-75
2020/12/28 07:18:06;;;;;;;12.18;8.10;;;;;;;2.61;77.30;98223.80;1695923;84;21152;-75
2020/12/28 07:20:33;;;;;;;15.65;9.10;;;;;;;2.62;77.32;98235.68;1677870;84;21162;-75
2020/12/28 07:22:59;;;;;;;13.98;8.48;;;;;;;2.61;77.32;98234.00;1701555;82;26720;-75
2020/12/28 07:25:26;;;;;;;15.32;8.75;;;;;;;2.62;77.33;98226.75;1701514;82;21112;-76
2020/12/28 07:27:52;;;;;;;15.05;9.03;;;;;;;2.62;77.33;98222.08;1698402;84;21672;-76
2020/12/28 07:30:18;;;;;;;15.58;8.80;;;;;;;2.62;77.34;98217.82;1698114;84;21243;-76
2020/12/28 07:32:45;;;;;;;13.62;8.20;;;;;;;2.62;77.35;98208.05;1702866;82;21617;-76
2020/12/28 07:35:11;;;;;;;18.07;9.43;;;;;;;2.61;77.34;98204.66;1699921;82;21266;-76
2020/12/28 07:37:42;;;;;;;14.83;8.30;;;;;;;2.61;77.37;98218.69;1702849;84;21707;-76
2020/12/28 07:40:09;;;;;;;14.70;8.65;;;;;;;2.63;77.38;98222.48;1690928;82;22095;-76
2020/12/28 07:42:36;;;;;;;13.03;7.65;;;;;;;2.62;77.40;98210.60;1702995;84;21159;-76
2020/12/28 07:45:07;;;;;;;;;;;;;;;2.62;77.40;98212.72;1704372;82;21576;-76
2020/12/28 07:47:56;;;;;;;14.33;8.30;;;;;;;2.63;77.41;98203.35;1699124;84;20296;-76
2020/12/28 07:50:24;;;;;;;13.22;8.03;;;;;;;2.63;77.42;98200.37;1699173;84;21116;-76
2020/12/28 07:53:06;;;;;;;13.68;8.35;;;;;;;2.64;77.43;98196.94;1701184;82;21148;-76
2020/12/28 07:55:42;;;;;;;12.80;7.83;;;;;;;2.64;77.47;98186.73;1689201;84;21154;-77
2020/12/28 07:58:22;;;;;;;15.45;7.50;;;;;;;2.65;77.47;98182.47;1692176;84;22291;-77
2020/12/28 08:00:51;;;;;;;12.35;7.53;;;;;;;2.68;77.50;98176.45;1692266;84;21231;-76
2020/12/28 08:03:34;;;;;;;14.50;7.85;;;;;;;2.71;77.51;98178.94;1706428;82;21227;-76
2020/12/28 08:06:05;;;;;;;14.90;8.00;;;;;;;2.74;77.54;98180.14;1672913;83;21670;-75
2020/12/28 08:08:31;;;;;;;15.95;8.28;;;;;;;2.76;77.54;98171.58;1697581;82;21171;-76
2020/12/28 08:11:00;;;;;;;15.80;8.30;;;;;;;2.79;77.59;98165.56;1696977;82;21203;-76
2020/12/28 08:13:32;;;;;;;13.18;7.78;;;;;;;2.83;77.64;98164.62;1676817;84;21534;-76
2020/12/28 08:16:13;;;;;;;13.78;7.75;;;;;;;2.87;77.63;98163.23;1700260;84;21202;-76
2020/12/28 08:18:54;;;;;;;14.93;7.58;;;;;;;2.93;77.68;98160.97;1695729;82;21228;-76
2020/12/28 08:21:25;;;;;;;14.63;7.60;;;;;;;3.00;77.71;98152.28;1700493;82;21120;-76
2020/12/28 08:23:56;;;;;;;13.30;7.70;;;;;;;3.09;77.72;98160.98;1674637;84;21704;-78
2020/12/28 08:26:25;;;;;;;10.85;6.92;;;;;;;3.19;77.74;98156.02;1697229;82;21147;-77
2020/12/28 08:28:55;;;;;;;10.40;6.50;;;;;;;3.28;77.72;98160.05;1701755;84;21707;-77
2020/12/28 08:31:34;;;;;;;16.85;7.55;;;;;;;3.36;77.70;98145.80;1699269;82;21602;-77
2020/12/28 08:34:13;;;;;;;11.40;6.95;;;;;;;3.44;77.67;98143.88;1698829;84;21767;-80
2020/12/28 08:36:54;;;;;;;13.75;7.70;;;;;;;3.51;77.68;98153.89;1691826;82;21203;-74
2020/12/28 08:39:24;;;;;;;10.70;7.10;;;;;;;3.55;77.62;98158.48;1702939;84;21207;-74
2020/12/28 08:42:00;;;;;;;13.30;7.33;;;;;;;3.60;77.60;98156.64;1695365;83;21168;-76
2020/12/28 08:44:31;;;;;;;16.52;7.83;;;;;;;3.63;77.60;98157.39;1694528;84;22023;-75
2020/12/28 08:46:58;;;;;;;11.57;7.25;;;;;;;3.68;77.58;98148.30;1683564;84;21211;-75
2020/12/28 08:49:28;;;;;;;11.95;7.55;;;;;;;3.71;77.58;98156.31;1694522;84;21637;-74
2020/12/28 08:51:55;;;;;;;12.80;8.05;;;;;;;3.73;77.60;98155.39;1692570;84;21203;-74
2020/12/28 08:54:27;;;;;;;11.73;7.03;;;;;;;3.78;77.60;98161.22;1691675;83;21155;-74
2020/12/28 08:56:57;;;;;;;15.08;8.30;;;;;;;3.82;77.63;98163.24;1690391;83;21289;-74
2020/12/28 08:59:23;;;;;;;14.53;7.30;;;;;;;3.85;77.62;98169.11;1688738;84;21204;-74
2020/12/28 09:01:55;;;;;;;12.45;7.60;;;;;;;3.89;77.63;98165.59;1685299;84;21582;-74
2020/12/28 09:04:22;;;;;;;14.25;8.00;;;;;;;3.90;77.58;98158.31;1687758;84;21239;-75
2020/12/28 09:06:49;;;;;;;12.00;7.20;;;;;;;3.93;77.60;98153.11;1688942;83;21206;-74
2020/12/28 09:09:16;;;;;;;16.42;7.70;;;;;;;3.96;77.60;98156.86;1689413;83;22503;-74
2020/12/28 09:11:44;;;;;;;10.85;7.00;;;;;;;3.98;77.61;98149.98;1685784;83;21215;-73
2020/12/28 09:14:10;;;;;;;10.98;7.10;;;;;;;4.01;77.61;98161.00;1694667;83;21219;-73
2020/12/28 09:16:37;;;;;;;18.57;8.75;;;;;;;4.02;77.61;98170.35;1689532;84;21143;-74
2020/12/28 09:19:05;;;;;;;12.58;7.92;;;;;;;4.03;77.62;98158.80;1693355;84;21128;-74
2020/12/28 09:21:31;;;;;;;13.78;7.83;;;;;;;4.03;77.58;98152.84;1695154;83;21558;-74
2020/12/28 09:23:58;;;;;;;14.25;7.33;;;;;;;4.04;77.59;98155.80;1693880;83;21148;-74
2020/12/28 09:26:24;;;;;;;13.58;7.15;;;;;;;4.02;77.61;98160.12;1694702;84;21160;-74
2020/12/28 09:28:50;;;;;;;15.08;8.30;;;;;;;4.01;77.60;98156.73;1694057;84;21072;-74
2020/12/28 09:31:17;;;;;;;14.18;7.62;;;;;;;4.01;77.64;98150.34;1690350;84;21223;-75
2020/12/28 09:33:43;;;;;;;12.78;7.45;;;;;;;4.01;77.67;98159.73;1692439;84;21210;-74
2020/12/28 09:36:09;;;;;;;14.33;8.00;;;;;;;4.02;77.68;98153.73;1691856;84;21171;-74
2020/12/28 09:38:35;;;;;;;15.38;8.18;;;;;;;4.03;77.71;98162.63;1691174;83;21198;-74
2020/12/28 09:41:02;;;;;;;11.78;7.10;;;;;;;4.05;77.71;98154.92;1693940;83;21656;-74
2020/12/28 09:43:28;;;;;;;10.78;6.62;;;;;;;4.07;77.71;98158.27;1692412;83;21191;-75
2020/12/28 09:45:54;;;;;;;11.53;7.40;;;;;;;4.08;77.69;98152.27;1693333;84;22327;-74
2020/12/28 09:48:21;;;;;;;9.75;6.45;;;;;;;4.09;77.70;98148.39;1690543;84;21232;-74
2020/12/28 09:50:47;;;;;;;12.07;7.40;;;;;;;4.10;77.68;98145.39;1691305;84;21616;-74
2020/12/28 09:53:13;;;;;;;13.70;7.60;;;;;;;4.10;77.69;98146.23;1661594;84;21246;-74
2020/12/28 09:55:40;;;;;;;12.07;7.65;;;;;;;4.12;77.73;98141.08;1693992;84;21180;-74
2020/12/28 09:58:06;;;;;;;10.68;7.28;;;;;;;4.13;77.72;98142.30;1687093;84;21715;-75
2020/12/28 10:00:32;;;;;;;15.08;7.97;;;;;;;4.15;77.71;98138.42;1693153;84;21203;-74
2020/12/28 10:02:59;;;;;;;12.37;7.17;;;;;;;4.17;77.73;98143.86;1683264;84;21204;-74
2020/12/28 10:05:25;;;;;;;10.65;6.85;;;;;;;4.19;77.77;98145.09;1693631;82;21136;-74
2020/12/28 10:07:51;;;;;;;11.35;7.17;;;;;;;4.19;77.70;98130.58;1695758;83;21136;-77
2020/12/28 10:10:17;;;;;;;13.83;7.62;;;;;;;4.21;77.73;98133.94;1693917;83;22068;-74
2020/12/28 10:12:44;;;;;;;16.37;8.35;;;;;;;4.21;77.73;98127.98;1692190;83;21195;-75
2020/12/28 10:15:10;;;;;;;14.47;9.05;;;;;;;4.22;77.72;98128.38;1684234;84;21589;-74
2020/12/28 10:17:36;;;;;;;14.07;8.20;;;;;;;4.23;77.71;98128.77;1691966;84;21224;-73
2020/12/28 10:20:04;;;;;;;15.80;7.65;;;;;;;4.24;77.75;98138.12;1691870;84;21758;-74
2020/12/28 10:22:31;;;;;;;16.12;8.28;;;;;;;4.25;77.72;98146.19;1686286;84;21935;-75
2020/12/28 10:24:57;;;;;;;13.78;8.08;;;;;;;4.24;77.75;98141.52;1695199;83;22244;-74
2020/12/28 10:27:24;;;;;;;13.20;8.28;;;;;;;4.25;77.71;98141.08;1692941;84;21454;-74
2020/12/28 10:29:50;;;;;;;;;;;;;;;4.25;77.77;98144.47;1695578;83;22667;-75
2020/12/28 10:32:16;;;;;;;14.63;8.13;;;;;;;4.26;77.77;98138.91;1686817;84;20310;-76
2020/12/28 10:34:42;;;;;;;13.20;7.05;;;;;;;4.27;77.79;98140.59;1688659;84;21183;-75
2020/12/28 10:37:09;;;;;;;12.37;7.55;;;;;;;4.28;77.76;98139.70;1692528;84;21207;-77
2020/12/28 10:39:35;;;;;;;12.65;7.90;;;;;;;4.29;77.82;98129.42;1692694;84;21215;-75
2020/12/28 10:42:05;;;;;;;12.80;7.10;;;;;;;4.32;77.82;98126.77;1693710;83;21652;-75
2020/12/28 10:44:31;;;;;;;12.85;7.50;;;;;;;4.37;77.84;98134.75;1669144;82;21397;-76
2020/12/28 10:46:57;;;;;;;17.80;8.83;;;;;;;4.40;77.79;98127.81;1701630;84;21738;-75
2020/12/28 10:49:24;;;;;;;14.63;7.33;;;;;;;4.40;77.79;98127.81;1699531;84;21183;-75
2020/12/28 10:51:50;;;;;;;11.70;7.22;;;;;;;4.40;77.73;98130.38;1699444;82;21206;-75
2020/12/28 10:54:16;;;;;;;13.83;8.53;;;;;;;4.40;77.75;98123.98;1690743;83;21230;-75
2020/12/28 10:56:43;;;;;;;16.12;8.60;;;;;;;4.42;77.80;98120.93;1695846;82;21173;-75
2020/12/28 10:59:09;;;;;;;13.53;8.53;;;;;;;4.45;77.85;98123.39;1698047;83;21247;-75
2020/12/28 11:01:35;;;;;;;15.95;8.50;;;;;;;4.47;77.83;98111.83;1700984;84;21195;-75
2020/12/28 11:04:01;;;;;;;14.13;7.83;;;;;;;4.52;77.86;98117.64;1697347;82;21228;-74
2020/12/28 11:06:28;;;;;;;14.85;8.63;;;;;;;4.54;77.77;98106.47;1700681;84;22297;-74
2020/12/28 11:08:54;;;;;;;17.15;9.30;;;;;;;4.55;77.80;98103.03;1698361;84;21196;-74
2020/12/28 11:11:21;;;;;;;12.85;8.25;;;;;;;4.57;77.76;98101.70;1702439;82;22035;-74
2020/12/28 11:13:47;;;;;;;;;;;;;;;4.59;77.77;98110.17;1702064;84;21175;-74
2020/12/28 11:16:14;;;;;;;17.37;8.55;;;;;;;4.61;77.82;98107.11;1708322;82;20246;-74
2020/12/28 11:18:40;;;;;;;11.93;8.00;;;;;;;4.62;77.80;98099.83;1703960;84;21545;-74
2020/12/28 11:21:07;;;;;;;13.70;7.67;;;;;;;4.64;77.83;98090.38;1697883;82;21104;-74
2020/12/28 11:26:18;;;;;;;15.72;7.92;;;;;;;4.71;77.76;98084.14;1700558;82;21133;-74
2020/12/28 11:28:44;;;;;;;;;;;;;;;4.74;77.83;98078.09;1702812;83;21562;-74
2020/12/28 11:31:16;;;;;;;14.95;8.78;;;;;;;4.80;77.87;98077.44;1700976;82;20319;-74
2020/12/28 11:33:43;;;;;;;12.88;7.00;;;;;;;4.84;77.79;98067.94;1702218;82;21151;-74
2020/12/28 11:36:10;;;;;;;13.30;7.67;;;;;;;4.85;77.77;98058.09;1690344;82;21240;-74
2020/12/28 11:38:37;;;;;;;11.95;7.58;;;;;;;4.85;77.77;98055.08;1694200;82;21160;-74
2020/12/28 11:41:04;;;;;;;15.93;8.93;;;;;;;4.88;77.74;98049.02;1702314;84;21544;-74